sensor_id;sensor_type;location;lat;lon;timestamp;temperature;humidity
6244;DHT22;3155;49.940;8.450;2023-05-14T00:01:05;8.40;99.90
6244;DHT22;3155;49.940;8.450;2023-05-14T00:03:34;8.40;99.90
6244;DHT22;3155;49.940;8.450;2023-05-14T00:06:03;8.50;99.90
6244;DHT22;3155;49.940;8.450;2023-05-14T00:08:30;8.40;99.90
6244;DHT22;3155;49.940;8.450;2023-05-14T00:10:56;8.30;99.90
6244;DHT22;3155;49.940;8.450;2023-05-14T00:13:24;8.20;99.90
6244;DHT22;3155;49.940;8.450;2023-05-14T00:15:54;8.20;99.90
6244;DHT22;3155;49.940;8.450;2023-05-14T00:18:21;8.20;99.90
6244;DHT22;3155;49.940;8.450;2023-05-14T00:20:48;8.20;99.90
6244;DHT22;3155;49.940;8.450;2023-05-14T00:23:16;8.30;99.90
6244;DHT22;3155;49.940;8.450;2023-05-14T00:25:43;8.50;99.90
6244;DHT22;3155;49.940;8.450;2023-05-14T00:28:16;8.60;99.90
6244;DHT22;3155;49.940;8.450;2023-05-14T00:30:43;8.80;99.90
6244;DHT22;3155;49.940;8.450;2023-05-14T00:33:10;8.90;99.90
6244;DHT22;3155;49.940;8.450;2023-05-14T00:35:40;8.90;99.90
6244;DHT22;3155;49.940;8.450;2023-05-14T00:38:10;9.00;99.90
6244;DHT22;3155;49.940;8.450;2023-05-14T00:40:42;8.90;99.90
6244;DHT22;3155;49.940;8.450;2023-05-14T00:43:11;8.80;99.90
6244;DHT22;3155;49.940;8.450;2023-05-14T00:45:38;8.80;99.90
6244;DHT22;3155;49.940;8.450;2023-05-14T00:48:04;8.80;99.90
6244;DHT22;3155;49.940;8.450;2023-05-14T00:50:31;8.70;99.90
6244;DHT22;3155;49.940;8.450;2023-05-14T00:53:02;8.70;99.90
6244;DHT22;3155;49.940;8.450;2023-05-14T00:55:40;8.60;99.90
6244;DHT22;3155;49.940;8.450;2023-05-14T00:58:10;8.70;99.90
6244;DHT22;3155;49.940;8.450;2023-05-14T01:00:38;8.70;99.90
6244;DHT22;3155;49.940;8.450;2023-05-14T01:03:06;8.80;99.90
6244;DHT22;3155;49.940;8.450;2023-05-14T01:16:37;8.80;99.90
6244;DHT22;3155;49.940;8.450;2023-05-14T01:19:09;8.70;99.90
6244;DHT22;3155;49.940;8.450;2023-05-14T01:21:42;8.70;99.90
6244;DHT22;3155;49.940;8.450;2023-05-14T01:24:09;8.70;99.90
6244;DHT22;3155;49.940;8.450;2023-05-14T01:26:36;8.80;99.90
6244;DHT22;3155;49.940;8.450;2023-05-14T01:29:18;8.80;99.90
6244;DHT22;3155;49.940;8.450;2023-05-14T01:31:48;8.80;99.90
6244;DHT22;3155;49.940;8.450;2023-05-14T01:34:19;8.70;99.90
6244;DHT22;3155;49.940;8.450;2023-05-14T01:36:47;8.60;99.90
6244;DHT22;3155;49.940;8.450;2023-05-14T01:39:14;8.60;99.90
6244;DHT22;3155;49.940;8.450;2023-05-14T01:41:41;8.50;99.90
6244;DHT22;3155;49.940;8.450;2023-05-14T01:44:12;8.40;99.90
6244;DHT22;3155;49.940;8.450;2023-05-14T01:46:39;8.50;99.90
6244;DHT22;3155;49.940;8.450;2023-05-14T01:49:06;8.50;99.90
6244;DHT22;3155;49.940;8.450;2023-05-14T01:51:33;8.50;99.90
6244;DHT22;3155;49.940;8.450;2023-05-14T01:54:00;8.50;99.90
6244;DHT22;3155;49.940;8.450;2023-05-14T01:56:27;8.50;99.90
6244;DHT22;3155;49.940;8.450;2023-05-14T01:58:53;8.40;99.90
6244;DHT22;3155;49.940;8.450;2023-05-14T02:01:22;8.30;99.90
6244;DHT22;3155;49.940;8.450;2023-05-14T02:03:48;8.30;99.90
6244;DHT22;3155;49.940;8.450;2023-05-14T02:06:16;8.30;99.90
6244;DHT22;3155;49.940;8.450;2023-05-14T02:08:42;8.20;99.90
6244;DHT22;3155;49.940;8.450;2023-05-14T02:11:12;8.20;99.90
6244;DHT22;3155;49.940;8.450;2023-05-14T02:13:39;8.20;99.90
6244;DHT22;3155;49.940;8.450;2023-05-14T02:16:11;8.20;99.90
6244;DHT22;3155;49.940;8.450;2023-05-14T02:18:40;8.30;99.90
6244;DHT22;3155;49.940;8.450;2023-05-14T02:21:07;8.30;99.90
6244;DHT22;3155;49.940;8.450;2023-05-14T02:23:34;8.30;99.90
6244;DHT22;3155;49.940;8.450;2023-05-14T02:26:09;8.30;99.90
6244;DHT22;3155;49.940;8.450;2023-05-14T02:28:36;8.30;99.90
6244;DHT22;3155;49.940;8.450;2023-05-14T02:31:06;8.20;99.90
6244;DHT22;3155;49.940;8.450;2023-05-14T02:33:32;8.40;99.90
6244;DHT22;3155;49.940;8.450;2023-05-14T02:35:59;8.40;99.90
6244;DHT22;3155;49.940;8.450;2023-05-14T02:38:26;8.30;99.90
6244;DHT22;3155;49.940;8.450;2023-05-14T02:40:52;8.20;99.90
6244;DHT22;3155;49.940;8.450;2023-05-14T02:43:19;8.10;99.90
6244;DHT22;3155;49.940;8.450;2023-05-14T02:45:48;8.10;99.90
6244;DHT22;3155;49.940;8.450;2023-05-14T02:48:15;8.00;99.90
6244;DHT22;3155;49.940;8.450;2023-05-14T02:50:41;8.10;99.90
6244;DHT22;3155;49.940;8.450;2023-05-14T02:53:08;8.10;99.90
6244;DHT22;3155;49.940;8.450;2023-05-14T02:55:35;8.10;99.90
6244;DHT22;3155;49.940;8.450;2023-05-14T02:58:04;8.20;99.90
6244;DHT22;3155;49.940;8.450;2023-05-14T03:00:34;8.10;99.90
6244;DHT22;3155;49.940;8.450;2023-05-14T03:03:01;8.00;99.90
6244;DHT22;3155;49.940;8.450;2023-05-14T03:05:28;7.90;99.90
6244;DHT22;3155;49.940;8.450;2023-05-14T03:07:55;7.90;99.90
6244;DHT22;3155;49.940;8.450;2023-05-14T03:10:21;7.80;99.90
6244;DHT22;3155;49.940;8.450;2023-05-14T03:12:48;7.80;99.90
6244;DHT22;3155;49.940;8.450;2023-05-14T03:15:15;7.80;99.90
6244;DHT22;3155;49.940;8.450;2023-05-14T03:17:42;7.70;99.90
6244;DHT22;3155;49.940;8.450;2023-05-14T03:20:10;7.70;99.90
6244;DHT22;3155;49.940;8.450;2023-05-14T03:22:37;7.80;99.90
6244;DHT22;3155;49.940;8.450;2023-05-14T03:25:07;7.80;99.90
6244;DHT22;3155;49.940;8.450;2023-05-14T03:27:34;7.70;99.90
6244;DHT22;3155;49.940;8.450;2023-05-14T03:30:01;7.60;99.90
6244;DHT22;3155;49.940;8.450;2023-05-14T03:32:28;7.50;99.90
6244;DHT22;3155;49.940;8.450;2023-05-14T03:34:55;7.40;99.90
6244;DHT22;3155;49.940;8.450;2023-05-14T03:37:23;7.40;99.90
6244;DHT22;3155;49.940;8.450;2023-05-14T03:39:49;7.30;99.90
6244;DHT22;3155;49.940;8.450;2023-05-14T03:42:16;7.20;99.90
6244;DHT22;3155;49.940;8.450;2023-05-14T03:44:43;7.10;99.90
6244;DHT22;3155;49.940;8.450;2023-05-14T03:47:10;7.10;99.90
6244;DHT22;3155;49.940;8.450;2023-05-14T03:49:37;7.10;99.90
6244;DHT22;3155;49.940;8.450;2023-05-14T03:52:03;7.00;99.90
6244;DHT22;3155;49.940;8.450;2023-05-14T03:54:30;7.00;99.90
6244;DHT22;3155;49.940;8.450;2023-05-14T03:56:57;7.10;99.90
6244;DHT22;3155;49.940;8.450;2023-05-14T03:59:24;7.20;99.90
6244;DHT22;3155;49.940;8.450;2023-05-14T04:01:51;7.20;99.90
6244;DHT22;3155;49.940;8.450;2023-05-14T04:04:18;7.30;99.90
6244;DHT22;3155;49.940;8.450;2023-05-14T04:06:45;7.30;99.90
6244;DHT22;3155;49.940;8.450;2023-05-14T04:09:12;7.40;99.90
6244;DHT22;3155;49.940;8.450;2023-05-14T04:11:39;7.30;99.90
6244;DHT22;3155;49.940;8.450;2023-05-14T04:14:06;7.30;99.90
6244;DHT22;3155;49.940;8.450;2023-05-14T04:16:33;7.30;99.90
6244;DHT22;3155;49.940;8.450;2023-05-14T04:19:01;7.30;99.90
6244;DHT22;3155;49.940;8.450;2023-05-14T04:21:30;7.40;99.90
6244;DHT22;3155;49.940;8.450;2023-05-14T04:23:57;7.40;99.90
6244;DHT22;3155;49.940;8.450;2023-05-14T04:26:23;7.40;99.90
6244;DHT22;3155;49.940;8.450;2023-05-14T04:28:50;7.40;99.90
6244;DHT22;3155;49.940;8.450;2023-05-14T04:31:18;7.40;99.90
6244;DHT22;3155;49.940;8.450;2023-05-14T04:33:45;7.40;99.90
6244;DHT22;3155;49.940;8.450;2023-05-14T04:36:12;7.50;99.90
6244;DHT22;3155;49.940;8.450;2023-05-14T04:38:39;7.60;99.90
6244;DHT22;3155;49.940;8.450;2023-05-14T04:41:06;8.00;99.90
6244;DHT22;3155;49.940;8.450;2023-05-14T04:43:33;8.60;99.90
6244;DHT22;3155;49.940;8.450;2023-05-14T04:46:00;9.20;99.90
6244;DHT22;3155;49.940;8.450;2023-05-14T04:48:27;9.70;99.90
6244;DHT22;3155;49.940;8.450;2023-05-14T04:50:54;10.20;99.90
6244;DHT22;3155;49.940;8.450;2023-05-14T04:53:20;10.60;99.90
6244;DHT22;3155;49.940;8.450;2023-05-14T04:55:47;11.10;99.90
6244;DHT22;3155;49.940;8.450;2023-05-14T04:58:14;11.60;99.90
6244;DHT22;3155;49.940;8.450;2023-05-14T05:00:41;12.00;99.90
6244;DHT22;3155;49.940;8.450;2023-05-14T05:03:07;12.30;99.90
6244;DHT22;3155;49.940;8.450;2023-05-14T05:05:34;12.70;99.90
6244;DHT22;3155;49.940;8.450;2023-05-14T05:08:01;13.10;99.90
6244;DHT22;3155;49.940;8.450;2023-05-14T05:10:28;13.40;99.90
6244;DHT22;3155;49.940;8.450;2023-05-14T05:12:54;13.40;99.90
6244;DHT22;3155;49.940;8.450;2023-05-14T05:15:21;13.30;99.90
6244;DHT22;3155;49.940;8.450;2023-05-14T05:17:50;12.90;1.00
6244;DHT22;3155;49.940;8.450;2023-05-14T05:20:17;12.50;99.90
6244;DHT22;3155;49.940;8.450;2023-05-14T05:22:44;12.00;91.20
6244;DHT22;3155;49.940;8.450;2023-05-14T05:25:10;11.70;99.90
6244;DHT22;3155;49.940;8.450;2023-05-14T05:27:38;11.40;99.90
6244;DHT22;3155;49.940;8.450;2023-05-14T05:30:05;11.20;99.90
6244;DHT22;3155;49.940;8.450;2023-05-14T05:32:33;11.20;99.90
6244;DHT22;3155;49.940;8.450;2023-05-14T05:35:00;11.30;99.90
6244;DHT22;3155;49.940;8.450;2023-05-14T05:37:26;11.50;99.90
6244;DHT22;3155;49.940;8.450;2023-05-14T05:39:53;11.60;99.90
6244;DHT22;3155;49.940;8.450;2023-05-14T05:42:20;11.60;99.90
6244;DHT22;3155;49.940;8.450;2023-05-14T05:44:50;11.70;99.90
6244;DHT22;3155;49.940;8.450;2023-05-14T05:47:17;11.70;99.90
6244;DHT22;3155;49.940;8.450;2023-05-14T05:49:44;11.80;99.90
6244;DHT22;3155;49.940;8.450;2023-05-14T05:52:11;12.00;99.90
6244;DHT22;3155;49.940;8.450;2023-05-14T05:54:37;12.30;99.90
6244;DHT22;3155;49.940;8.450;2023-05-14T05:57:06;12.70;36.90
6244;DHT22;3155;49.940;8.450;2023-05-14T05:59:33;13.10;1.00
6244;DHT22;3155;49.940;8.450;2023-05-14T06:01:59;13.30;1.00
6244;DHT22;3155;49.940;8.450;2023-05-14T06:04:26;13.30;1.00
6244;DHT22;3155;49.940;8.450;2023-05-14T06:06:53;13.20;30.00
6244;DHT22;3155;49.940;8.450;2023-05-14T06:09:20;13.30;1.00
6244;DHT22;3155;49.940;8.450;2023-05-14T06:11:46;13.30;1.00
6244;DHT22;3155;49.940;8.450;2023-05-14T06:14:13;13.50;1.00
6244;DHT22;3155;49.940;8.450;2023-05-14T06:16:40;13.60;1.00
6244;DHT22;3155;49.940;8.450;2023-05-14T06:19:07;13.70;1.00
6244;DHT22;3155;49.940;8.450;2023-05-14T06:21:34;13.50;6.00
6244;DHT22;3155;49.940;8.450;2023-05-14T06:24:01;13.50;99.90
6244;DHT22;3155;49.940;8.450;2023-05-14T06:26:27;14.20;99.90
6244;DHT22;3155;49.940;8.450;2023-05-14T06:28:54;15.20;1.00
6244;DHT22;3155;49.940;8.450;2023-05-14T06:31:21;16.30;1.00
6244;DHT22;3155;49.940;8.450;2023-05-14T06:33:47;16.90;1.00
6244;DHT22;3155;49.940;8.450;2023-05-14T06:36:14;17.20;99.90
6244;DHT22;3155;49.940;8.450;2023-05-14T06:38:41;17.50;99.90
6244;DHT22;3155;49.940;8.450;2023-05-14T06:41:10;18.20;99.90
6244;DHT22;3155;49.940;8.450;2023-05-14T06:43:37;19.10;99.90
6244;DHT22;3155;49.940;8.450;2023-05-14T06:46:04;19.60;99.90
6244;DHT22;3155;49.940;8.450;2023-05-14T06:48:31;20.00;99.90
6244;DHT22;3155;49.940;8.450;2023-05-14T06:51:04;20.20;99.90
6244;DHT22;3155;49.940;8.450;2023-05-14T06:53:32;20.30;99.90
6244;DHT22;3155;49.940;8.450;2023-05-14T06:55:59;20.60;99.90
6244;DHT22;3155;49.940;8.450;2023-05-14T06:58:26;20.80;99.90
6244;DHT22;3155;49.940;8.450;2023-05-14T07:00:52;20.70;99.90
6244;DHT22;3155;49.940;8.450;2023-05-14T07:03:19;20.80;99.90
6244;DHT22;3155;49.940;8.450;2023-05-14T07:05:47;21.00;99.90
6244;DHT22;3155;49.940;8.450;2023-05-14T07:08:14;20.80;99.90
6244;DHT22;3155;49.940;8.450;2023-05-14T07:10:41;20.80;99.90
6244;DHT22;3155;49.940;8.450;2023-05-14T07:13:10;20.80;99.90
6244;DHT22;3155;49.940;8.450;2023-05-14T07:15:39;21.20;99.90
6244;DHT22;3155;49.940;8.450;2023-05-14T07:18:06;21.40;99.90
6244;DHT22;3155;49.940;8.450;2023-05-14T07:20:32;21.10;99.90
6244;DHT22;3155;49.940;8.450;2023-05-14T07:22:59;21.40;99.90
6244;DHT22;3155;49.940;8.450;2023-05-14T07:25:26;21.80;99.90
6244;DHT22;3155;49.940;8.450;2023-05-14T07:27:53;22.00;99.90
6244;DHT22;3155;49.940;8.450;2023-05-14T07:30:25;22.10;99.90
6244;DHT22;3155;49.940;8.450;2023-05-14T07:32:52;21.80;99.90
6244;DHT22;3155;49.940;8.450;2023-05-14T07:35:19;21.80;99.90
6244;DHT22;3155;49.940;8.450;2023-05-14T07:37:46;21.60;99.90
6244;DHT22;3155;49.940;8.450;2023-05-14T07:40:13;21.00;99.90
6244;DHT22;3155;49.940;8.450;2023-05-14T07:42:42;20.90;99.90
6244;DHT22;3155;49.940;8.450;2023-05-14T07:45:09;21.20;99.90
6244;DHT22;3155;49.940;8.450;2023-05-14T07:47:36;21.60;99.90
6244;DHT22;3155;49.940;8.450;2023-05-14T07:50:04;21.70;99.90
6244;DHT22;3155;49.940;8.450;2023-05-14T07:52:32;21.60;99.90
6244;DHT22;3155;49.940;8.450;2023-05-14T07:54:59;20.90;99.90
6244;DHT22;3155;49.940;8.450;2023-05-14T07:57:26;20.40;99.90
6244;DHT22;3155;49.940;8.450;2023-05-14T07:59:53;20.20;99.90
6244;DHT22;3155;49.940;8.450;2023-05-14T08:02:20;20.30;99.90
6244;DHT22;3155;49.940;8.450;2023-05-14T08:04:47;20.80;99.90
6244;DHT22;3155;49.940;8.450;2023-05-14T08:07:13;21.30;99.90
6244;DHT22;3155;49.940;8.450;2023-05-14T08:09:40;20.80;99.90
6244;DHT22;3155;49.940;8.450;2023-05-14T08:12:07;20.70;99.90
6244;DHT22;3155;49.940;8.450;2023-05-14T08:14:34;21.10;99.90
6244;DHT22;3155;49.940;8.450;2023-05-14T08:17:01;21.40;99.90
6244;DHT22;3155;49.940;8.450;2023-05-14T08:19:28;21.10;99.90
6244;DHT22;3155;49.940;8.450;2023-05-14T08:21:54;21.30;99.90
6244;DHT22;3155;49.940;8.450;2023-05-14T08:24:21;21.80;99.90
6244;DHT22;3155;49.940;8.450;2023-05-14T08:26:48;22.10;99.90
6244;DHT22;3155;49.940;8.450;2023-05-14T08:29:15;21.90;99.90
6244;DHT22;3155;49.940;8.450;2023-05-14T08:31:42;21.80;99.90
6244;DHT22;3155;49.940;8.450;2023-05-14T08:34:09;21.00;99.90
6244;DHT22;3155;49.940;8.450;2023-05-14T08:36:37;20.10;99.90
6244;DHT22;3155;49.940;8.450;2023-05-14T08:39:07;19.80;99.90
6244;DHT22;3155;49.940;8.450;2023-05-14T08:41:34;20.60;99.90
6244;DHT22;3155;49.940;8.450;2023-05-14T08:44:12;20.40;99.90
6244;DHT22;3155;49.940;8.450;2023-05-14T08:46:46;20.20;99.90
6244;DHT22;3155;49.940;8.450;2023-05-14T08:52:01;19.30;99.90
6244;DHT22;3155;49.940;8.450;2023-05-14T08:54:28;18.90;99.90
6244;DHT22;3155;49.940;8.450;2023-05-14T08:57:09;18.60;99.90
6244;DHT22;3155;49.940;8.450;2023-05-14T08:59:36;18.60;99.90
6244;DHT22;3155;49.940;8.450;2023-05-14T09:02:04;18.60;99.90
6244;DHT22;3155;49.940;8.450;2023-05-14T09:04:32;18.70;99.90
6244;DHT22;3155;49.940;8.450;2023-05-14T09:07:01;18.40;99.90
6244;DHT22;3155;49.940;8.450;2023-05-14T09:09:28;18.40;99.90
6244;DHT22;3155;49.940;8.450;2023-05-14T09:11:55;18.50;99.90
6244;DHT22;3155;49.940;8.450;2023-05-14T09:14:22;18.60;99.90
6244;DHT22;3155;49.940;8.450;2023-05-14T09:16:51;18.80;99.90
6244;DHT22;3155;49.940;8.450;2023-05-14T09:19:18;19.10;99.90
6244;DHT22;3155;49.940;8.450;2023-05-14T09:21:47;19.50;99.90
6244;DHT22;3155;49.940;8.450;2023-05-14T09:24:23;19.10;99.90
6244;DHT22;3155;49.940;8.450;2023-05-14T09:26:55;20.00;99.90
6244;DHT22;3155;49.940;8.450;2023-05-14T09:29:23;20.90;99.90
6244;DHT22;3155;49.940;8.450;2023-05-14T09:31:51;21.60;99.90
6244;DHT22;3155;49.940;8.450;2023-05-14T09:34:28;22.10;99.90
6244;DHT22;3155;49.940;8.450;2023-05-14T09:36:59;22.80;99.90
6244;DHT22;3155;49.940;8.450;2023-05-14T09:39:27;23.40;99.90
6244;DHT22;3155;49.940;8.450;2023-05-14T09:41:54;23.50;99.90
6244;DHT22;3155;49.940;8.450;2023-05-14T09:44:22;23.10;99.90
6244;DHT22;3155;49.940;8.450;2023-05-14T09:46:49;22.60;99.90
6244;DHT22;3155;49.940;8.450;2023-05-14T09:49:16;22.80;99.90
6244;DHT22;3155;49.940;8.450;2023-05-14T09:51:43;23.00;99.90
6244;DHT22;3155;49.940;8.450;2023-05-14T09:54:10;23.10;99.90
6244;DHT22;3155;49.940;8.450;2023-05-14T09:56:37;23.50;99.90
6244;DHT22;3155;49.940;8.450;2023-05-14T09:59:05;23.80;99.90
6244;DHT22;3155;49.940;8.450;2023-05-14T10:01:32;23.80;99.90
6244;DHT22;3155;49.940;8.450;2023-05-14T10:03:59;23.90;99.90
6244;DHT22;3155;49.940;8.450;2023-05-14T10:06:30;22.70;99.90
6244;DHT22;3155;49.940;8.450;2023-05-14T10:09:01;21.80;99.90
6244;DHT22;3155;49.940;8.450;2023-05-14T10:11:33;20.90;99.90
6244;DHT22;3155;49.940;8.450;2023-05-14T10:14:12;20.70;99.90
6244;DHT22;3155;49.940;8.450;2023-05-14T10:16:48;20.70;99.90
6244;DHT22;3155;49.940;8.450;2023-05-14T10:19:17;21.00;99.90
6244;DHT22;3155;49.940;8.450;2023-05-14T10:21:48;21.00;99.90
6244;DHT22;3155;49.940;8.450;2023-05-14T10:24:18;20.90;99.90
6244;DHT22;3155;49.940;8.450;2023-05-14T10:26:45;20.50;99.90
6244;DHT22;3155;49.940;8.450;2023-05-14T10:29:12;20.40;99.90
6244;DHT22;3155;49.940;8.450;2023-05-14T10:31:50;20.10;99.90
6244;DHT22;3155;49.940;8.450;2023-05-14T10:34:41;19.90;99.90
6244;DHT22;3155;49.940;8.450;2023-05-14T10:39:58;20.20;99.90
6244;DHT22;3155;49.940;8.450;2023-05-14T10:42:27;20.70;99.90
6244;DHT22;3155;49.940;8.450;2023-05-14T10:45:03;20.90;99.90
6244;DHT22;3155;49.940;8.450;2023-05-14T10:47:36;20.70;99.90
6244;DHT22;3155;49.940;8.450;2023-05-14T10:50:06;20.70;99.90
6244;DHT22;3155;49.940;8.450;2023-05-14T10:52:34;20.90;99.90
6244;DHT22;3155;49.940;8.450;2023-05-14T10:55:03;20.70;99.90
6244;DHT22;3155;49.940;8.450;2023-05-14T10:57:36;20.70;99.90
6244;DHT22;3155;49.940;8.450;2023-05-14T11:00:05;21.00;99.90
6244;DHT22;3155;49.940;8.450;2023-05-14T11:02:38;21.10;99.90
6244;DHT22;3155;49.940;8.450;2023-05-14T11:05:07;21.40;99.90
6244;DHT22;3155;49.940;8.450;2023-05-14T11:07:36;21.60;99.90
6244;DHT22;3155;49.940;8.450;2023-05-14T11:10:06;21.40;99.90
6244;DHT22;3155;49.940;8.450;2023-05-14T11:12:35;21.10;99.90
6244;DHT22;3155;49.940;8.450;2023-05-14T11:15:04;21.10;99.90
6244;DHT22;3155;49.940;8.450;2023-05-14T11:17:33;21.20;99.90
6244;DHT22;3155;49.940;8.450;2023-05-14T11:20:04;21.00;99.90
6244;DHT22;3155;49.940;8.450;2023-05-14T11:22:35;21.50;99.90
6244;DHT22;3155;49.940;8.450;2023-05-14T11:25:02;21.50;99.90
6244;DHT22;3155;49.940;8.450;2023-05-14T11:27:30;21.70;99.90
6244;DHT22;3155;49.940;8.450;2023-05-14T11:29:57;21.90;99.90
6244;DHT22;3155;49.940;8.450;2023-05-14T11:32:26;21.60;99.90
6244;DHT22;3155;49.940;8.450;2023-05-14T11:34:53;21.60;99.90
6244;DHT22;3155;49.940;8.450;2023-05-14T11:37:20;21.70;99.90
6244;DHT22;3155;49.940;8.450;2023-05-14T11:39:49;21.50;99.90
6244;DHT22;3155;49.940;8.450;2023-05-14T11:42:16;21.70;99.90
6244;DHT22;3155;49.940;8.450;2023-05-14T11:44:47;22.00;99.90
6244;DHT22;3155;49.940;8.450;2023-05-14T11:47:15;22.40;99.90
6244;DHT22;3155;49.940;8.450;2023-05-14T11:49:42;22.40;99.90
6244;DHT22;3155;49.940;8.450;2023-05-14T11:52:10;22.40;99.90
6244;DHT22;3155;49.940;8.450;2023-05-14T11:54:43;22.60;99.90
6244;DHT22;3155;49.940;8.450;2023-05-14T11:57:12;21.90;99.90
6244;DHT22;3155;49.940;8.450;2023-05-14T11:59:39;22.00;99.90
6244;DHT22;3155;49.940;8.450;2023-05-14T12:02:11;22.90;99.90
6244;DHT22;3155;49.940;8.450;2023-05-14T12:04:39;23.10;99.90
6244;DHT22;3155;49.940;8.450;2023-05-14T12:07:11;23.00;99.90
6244;DHT22;3155;49.940;8.450;2023-05-14T12:09:47;23.60;99.90
6244;DHT22;3155;49.940;8.450;2023-05-14T12:12:21;24.00;99.90
6244;DHT22;3155;49.940;8.450;2023-05-14T12:14:50;24.70;99.90
6244;DHT22;3155;49.940;8.450;2023-05-14T12:17:19;25.00;99.90
6244;DHT22;3155;49.940;8.450;2023-05-14T12:19:49;25.40;99.90
6244;DHT22;3155;49.940;8.450;2023-05-14T12:22:20;25.20;99.90
6244;DHT22;3155;49.940;8.450;2023-05-14T12:24:55;25.00;99.90
6244;DHT22;3155;49.940;8.450;2023-05-14T12:27:26;23.50;99.90
6244;DHT22;3155;49.940;8.450;2023-05-14T12:29:59;22.80;99.90
6244;DHT22;3155;49.940;8.450;2023-05-14T12:32:48;22.40;99.90
6244;DHT22;3155;49.940;8.450;2023-05-14T12:35:20;22.20;99.90
6244;DHT22;3155;49.940;8.450;2023-05-14T12:37:48;22.00;99.90
6244;DHT22;3155;49.940;8.450;2023-05-14T12:40:15;21.60;99.90
6244;DHT22;3155;49.940;8.450;2023-05-14T12:42:42;21.80;99.90
6244;DHT22;3155;49.940;8.450;2023-05-14T12:45:12;22.30;99.90
6244;DHT22;3155;49.940;8.450;2023-05-14T12:47:39;22.60;99.90
6244;DHT22;3155;49.940;8.450;2023-05-14T12:50:06;22.60;99.90
6244;DHT22;3155;49.940;8.450;2023-05-14T12:52:33;22.30;99.90
6244;DHT22;3155;49.940;8.450;2023-05-14T12:55:06;23.30;99.90
6244;DHT22;3155;49.940;8.450;2023-05-14T12:57:33;24.20;99.90
6244;DHT22;3155;49.940;8.450;2023-05-14T13:00:04;24.40;99.90
6244;DHT22;3155;49.940;8.450;2023-05-14T13:02:33;25.20;99.90
6244;DHT22;3155;49.940;8.450;2023-05-14T13:05:09;25.60;99.90
6244;DHT22;3155;49.940;8.450;2023-05-14T13:07:37;24.70;99.90
6244;DHT22;3155;49.940;8.450;2023-05-14T13:10:04;23.50;99.90
6244;DHT22;3155;49.940;8.450;2023-05-14T13:12:31;22.30;99.90
6244;DHT22;3155;49.940;8.450;2023-05-14T13:14:58;21.70;99.90
6244;DHT22;3155;49.940;8.450;2023-05-14T13:17:24;21.30;99.90
6244;DHT22;3155;49.940;8.450;2023-05-14T13:19:51;21.20;99.90
6244;DHT22;3155;49.940;8.450;2023-05-14T13:22:20;22.00;99.90
6244;DHT22;3155;49.940;8.450;2023-05-14T13:24:47;22.70;99.90
6244;DHT22;3155;49.940;8.450;2023-05-14T13:27:15;23.90;99.90
6244;DHT22;3155;49.940;8.450;2023-05-14T13:29:41;25.10;99.90
6244;DHT22;3155;49.940;8.450;2023-05-14T13:32:08;25.90;99.90
6244;DHT22;3155;49.940;8.450;2023-05-14T13:34:35;26.00;99.90
6244;DHT22;3155;49.940;8.450;2023-05-14T13:37:02;26.50;99.90
6244;DHT22;3155;49.940;8.450;2023-05-14T13:39:29;27.00;99.90
6244;DHT22;3155;49.940;8.450;2023-05-14T13:41:56;27.70;99.90
6244;DHT22;3155;49.940;8.450;2023-05-14T13:44:26;26.90;99.90
6244;DHT22;3155;49.940;8.450;2023-05-14T13:46:53;26.80;99.90
6244;DHT22;3155;49.940;8.450;2023-05-14T13:49:20;27.60;99.90
6244;DHT22;3155;49.940;8.450;2023-05-14T13:51:46;27.20;99.90
6244;DHT22;3155;49.940;8.450;2023-05-14T13:54:13;26.50;99.90
6244;DHT22;3155;49.940;8.450;2023-05-14T13:56:43;25.60;99.90
6244;DHT22;3155;49.940;8.450;2023-05-14T13:59:10;25.50;99.90
6244;DHT22;3155;49.940;8.450;2023-05-14T14:01:37;25.60;99.90
6244;DHT22;3155;49.940;8.450;2023-05-14T14:04:04;25.30;99.90
6244;DHT22;3155;49.940;8.450;2023-05-14T14:06:30;25.80;99.90
6244;DHT22;3155;49.940;8.450;2023-05-14T14:08:58;26.00;99.90
6244;DHT22;3155;49.940;8.450;2023-05-14T14:11:25;26.50;99.90
6244;DHT22;3155;49.940;8.450;2023-05-14T14:13:52;27.20;99.90
6244;DHT22;3155;49.940;8.450;2023-05-14T14:16:19;26.90;99.90
6244;DHT22;3155;49.940;8.450;2023-05-14T14:18:45;27.00;99.90
6244;DHT22;3155;49.940;8.450;2023-05-14T14:21:13;27.70;99.90
6244;DHT22;3155;49.940;8.450;2023-05-14T14:23:45;28.20;99.90
6244;DHT22;3155;49.940;8.450;2023-05-14T14:26:12;27.90;99.90
6244;DHT22;3155;49.940;8.450;2023-05-14T14:28:38;27.80;99.90
6244;DHT22;3155;49.940;8.450;2023-05-14T14:31:06;28.50;99.90
6244;DHT22;3155;49.940;8.450;2023-05-14T14:33:32;28.70;99.90
6244;DHT22;3155;49.940;8.450;2023-05-14T14:35:59;27.50;99.90
6244;DHT22;3155;49.940;8.450;2023-05-14T14:38:26;27.10;99.90
6244;DHT22;3155;49.940;8.450;2023-05-14T14:40:52;26.80;99.90
6244;DHT22;3155;49.940;8.450;2023-05-14T14:43:19;27.00;99.90
6244;DHT22;3155;49.940;8.450;2023-05-14T14:45:46;27.80;99.90
6244;DHT22;3155;49.940;8.450;2023-05-14T14:48:29;28.50;99.90
6244;DHT22;3155;49.940;8.450;2023-05-14T14:50:58;29.30;99.90
6244;DHT22;3155;49.940;8.450;2023-05-14T14:53:24;29.90;99.90
6244;DHT22;3155;49.940;8.450;2023-05-14T14:55:52;30.70;99.90
6244;DHT22;3155;49.940;8.450;2023-05-14T14:58:19;30.70;99.90
6244;DHT22;3155;49.940;8.450;2023-05-14T15:00:47;30.50;99.90
6244;DHT22;3155;49.940;8.450;2023-05-14T15:03:14;30.60;99.90
6244;DHT22;3155;49.940;8.450;2023-05-14T15:05:41;30.70;99.90
6244;DHT22;3155;49.940;8.450;2023-05-14T15:08:09;30.80;99.90
6244;DHT22;3155;49.940;8.450;2023-05-14T15:10:36;30.40;99.90
6244;DHT22;3155;49.940;8.450;2023-05-14T15:13:07;30.20;99.90
6244;DHT22;3155;49.940;8.450;2023-05-14T15:15:35;30.30;99.90
6244;DHT22;3155;49.940;8.450;2023-05-14T15:18:02;30.90;99.90
6244;DHT22;3155;49.940;8.450;2023-05-14T15:22:56;30.60;99.90
6244;DHT22;3155;49.940;8.450;2023-05-14T15:25:23;30.60;99.90
6244;DHT22;3155;49.940;8.450;2023-05-14T15:27:50;30.40;99.90
6244;DHT22;3155;49.940;8.450;2023-05-14T15:30:17;29.70;99.90
6244;DHT22;3155;49.940;8.450;2023-05-14T15:32:45;29.00;99.90
6244;DHT22;3155;49.940;8.450;2023-05-14T15:35:12;28.80;99.90
6244;DHT22;3155;49.940;8.450;2023-05-14T15:37:41;27.90;99.90
6244;DHT22;3155;49.940;8.450;2023-05-14T15:40:09;28.70;99.90
6244;DHT22;3155;49.940;8.450;2023-05-14T15:42:38;29.00;99.90
6244;DHT22;3155;49.940;8.450;2023-05-14T15:45:05;28.90;99.90
6244;DHT22;3155;49.940;8.450;2023-05-14T15:47:32;28.10;99.90
6244;DHT22;3155;49.940;8.450;2023-05-14T15:49:59;27.20;99.90
6244;DHT22;3155;49.940;8.450;2023-05-14T15:52:26;26.20;99.90
6244;DHT22;3155;49.940;8.450;2023-05-14T15:54:53;25.30;99.90
6244;DHT22;3155;49.940;8.450;2023-05-14T15:57:23;23.80;99.90
6244;DHT22;3155;49.940;8.450;2023-05-14T15:59:55;23.10;99.90
6244;DHT22;3155;49.940;8.450;2023-05-14T16:02:25;22.40;99.90
6244;DHT22;3155;49.940;8.450;2023-05-14T16:04:55;22.40;99.90
6244;DHT22;3155;49.940;8.450;2023-05-14T16:07:25;22.40;99.90
6244;DHT22;3155;49.940;8.450;2023-05-14T16:09:52;22.50;99.90
6244;DHT22;3155;49.940;8.450;2023-05-14T16:12:18;22.30;99.90
6244;DHT22;3155;49.940;8.450;2023-05-14T16:14:45;22.30;99.90
6244;DHT22;3155;49.940;8.450;2023-05-14T16:17:12;22.00;99.90
6244;DHT22;3155;49.940;8.450;2023-05-14T16:19:39;21.90;99.90
6244;DHT22;3155;49.940;8.450;2023-05-14T16:22:06;22.00;99.90
6244;DHT22;3155;49.940;8.450;2023-05-14T16:24:35;22.20;99.90
6244;DHT22;3155;49.940;8.450;2023-05-14T16:27:02;22.10;99.90
6244;DHT22;3155;49.940;8.450;2023-05-14T16:29:29;22.00;99.90
6244;DHT22;3155;49.940;8.450;2023-05-14T16:31:56;21.90;99.90